createdAt,value
2018-06-27T00:00:51.502Z,0.00
2018-06-27T00:01:51.494Z,0.00
2018-06-27T00:02:51.491Z,0.00
2018-06-27T00:03:51.481Z,0.00
2018-06-27T00:04:51.471Z,0.00
2018-06-27T00:05:51.460Z,0.00
2018-06-27T00:06:51.453Z,0.00
2018-06-27T00:07:51.444Z,0.00
2018-06-27T00:08:51.442Z,0.00
2018-06-27T00:09:51.436Z,0.00
2018-06-27T00:10:51.438Z,0.00
2018-06-27T00:11:51.414Z,0.00
2018-06-27T00:12:51.409Z,0.00
2018-06-27T00:13:51.403Z,0.00
2018-06-27T00:14:51.391Z,0.00
2018-06-27T00:15:51.385Z,0.00
2018-06-27T00:16:51.379Z,0.00
2018-06-27T00:17:51.370Z,0.00
2018-06-27T00:18:51.364Z,0.00
2018-06-27T00:19:51.355Z,0.00
2018-06-27T00:20:51.349Z,0.00
2018-06-27T00:21:51.347Z,0.00
2018-06-27T00:22:51.333Z,0.00
2018-06-27T00:23:51.331Z,0.00
2018-06-27T00:24:51.320Z,0.00
2018-06-27T00:25:51.310Z,0.00
2018-06-27T00:26:51.304Z,0.00
2018-06-27T00:27:51.308Z,0.00
2018-06-27T00:28:51.293Z,0.00
2018-06-27T00:29:51.285Z,0.00
2018-06-27T00:30:51.274Z,0.00
2018-06-27T00:31:51.264Z,0.00
2018-06-27T00:32:51.262Z,0.00
2018-06-27T00:33:51.314Z,0.00
2018-06-27T00:34:51.247Z,0.00
2018-06-27T00:35:51.236Z,0.00
2018-06-27T00:36:51.234Z,0.00
2018-06-27T00:37:51.228Z,0.00
2018-06-27T00:38:51.213Z,0.00
2018-06-27T00:39:51.205Z,0.00
2018-06-27T00:40:51.199Z,0.00
2018-06-27T00:41:51.195Z,0.00
2018-06-27T00:42:51.185Z,0.00
2018-06-27T00:43:51.179Z,0.00
2018-06-27T00:44:51.169Z,0.00
2018-06-27T00:45:51.163Z,0.00
2018-06-27T00:46:51.151Z,0.00
2018-06-27T00:47:51.144Z,0.00
2018-06-27T00:48:51.139Z,0.00
2018-06-27T00:49:51.151Z,0.00
2018-06-27T00:50:51.126Z,0.00
2018-06-27T00:51:51.116Z,0.00
2018-06-27T00:52:51.105Z,0.00
2018-06-27T00:53:51.097Z,0.00
2018-06-27T00:54:51.101Z,0.00
2018-06-27T00:55:51.082Z,0.00
2018-06-27T00:56:51.081Z,0.00
2018-06-27T00:57:51.069Z,0.00
2018-06-27T00:58:51.057Z,0.00
2018-06-27T00:59:51.053Z,0.00
2018-06-27T01:00:51.056Z,0.00
2018-06-27T01:01:51.055Z,0.00
2018-06-27T01:02:51.039Z,0.00
2018-06-27T01:03:51.023Z,0.00
2018-06-27T01:04:51.016Z,0.00
2018-06-27T01:05:51.016Z,0.00
2018-06-27T01:06:51.000Z,0.00
2018-06-27T01:07:50.990Z,0.00
2018-06-27T01:08:50.987Z,0.00
2018-06-27T01:09:50.977Z,0.00
2018-06-27T01:10:50.974Z,0.00
2018-06-27T01:11:50.962Z,0.00
2018-06-27T01:12:50.955Z,0.00
2018-06-27T01:13:50.945Z,0.00
2018-06-27T01:14:50.935Z,0.00
2018-06-27T01:15:50.931Z,0.00
2018-06-27T01:16:50.927Z,0.00
2018-06-27T01:17:50.921Z,0.00
2018-06-27T01:18:50.911Z,0.00
2018-06-27T01:19:50.903Z,0.00
2018-06-27T01:20:50.892Z,0.00
2018-06-27T01:21:50.882Z,0.00
2018-06-27T01:22:50.877Z,0.00
2018-06-27T01:23:50.870Z,0.00
2018-06-27T01:24:50.863Z,0.00
2018-06-27T01:25:50.853Z,0.00
2018-06-27T01:26:50.845Z,0.00
2018-06-27T01:27:50.837Z,0.00
2018-06-27T01:28:50.827Z,0.00
2018-06-27T01:29:50.831Z,0.00
2018-06-27T01:30:50.817Z,0.00
2018-06-27T01:31:50.811Z,0.00
2018-06-27T01:32:50.803Z,0.00
2018-06-27T01:33:50.791Z,0.00
2018-06-27T01:34:50.783Z,0.00
2018-06-27T01:35:50.777Z,0.00
2018-06-27T01:36:50.772Z,0.00
2018-06-27T01:37:50.761Z,0.00
2018-06-27T01:38:50.758Z,0.00
2018-06-27T01:39:50.746Z,0.00
2018-06-27T01:40:50.736Z,0.00
2018-06-27T01:41:50.735Z,0.00
2018-06-27T01:42:50.728Z,0.00
2018-06-27T01:43:50.727Z,0.00
2018-06-27T01:44:50.708Z,0.00
2018-06-27T01:45:50.701Z,0.00
2018-06-27T01:46:50.692Z,0.00
2018-06-27T01:47:50.683Z,0.00
2018-06-27T01:48:50.681Z,0.00
2018-06-27T01:49:50.668Z,0.00
2018-06-27T01:50:50.667Z,0.00
2018-06-27T01:51:50.656Z,0.00
2018-06-27T01:52:50.647Z,0.00
2018-06-27T01:53:50.638Z,0.00
2018-06-27T01:54:50.628Z,0.00
2018-06-27T01:55:50.620Z,0.00
2018-06-27T01:56:50.618Z,0.00
2018-06-27T01:57:50.606Z,0.00
2018-06-27T01:58:50.597Z,0.00
2018-06-27T01:59:50.591Z,0.00
2018-06-27T02:00:50.586Z,0.00
2018-06-27T02:01:50.577Z,0.00
2018-06-27T02:02:50.564Z,0.00
2018-06-27T02:03:50.558Z,0.00
2018-06-27T02:04:50.555Z,0.00
2018-06-27T02:05:50.546Z,0.00
2018-06-27T02:06:50.538Z,0.00
2018-06-27T02:07:50.529Z,0.00
2018-06-27T02:08:50.543Z,0.00
2018-06-27T02:09:50.510Z,0.00
2018-06-27T02:10:50.500Z,0.00
2018-06-27T02:11:50.499Z,0.00
2018-06-27T02:12:50.495Z,0.00
2018-06-27T02:13:50.481Z,0.00
2018-06-27T02:14:50.502Z,0.00
2018-06-27T02:15:50.463Z,0.00
2018-06-27T02:16:50.456Z,0.00
2018-06-27T02:17:50.448Z,0.00
2018-06-27T02:18:50.446Z,0.00
2018-06-27T02:19:50.436Z,0.00
2018-06-27T02:20:50.428Z,0.00
2018-06-27T02:21:50.418Z,0.00
2018-06-27T02:22:50.407Z,0.00
2018-06-27T02:23:50.403Z,0.00
2018-06-27T02:24:50.392Z,0.00
2018-06-27T02:25:50.391Z,0.00
2018-06-27T02:26:50.383Z,0.00
2018-06-27T02:27:50.372Z,0.00
2018-06-27T02:28:50.366Z,0.00
2018-06-27T02:29:50.357Z,0.00
2018-06-27T02:30:50.349Z,0.00
2018-06-27T02:31:50.340Z,0.00
2018-06-27T02:32:50.336Z,0.00
2018-06-27T02:33:50.329Z,0.00
2018-06-27T02:34:50.316Z,0.00
2018-06-27T02:35:50.306Z,0.00
2018-06-27T02:36:50.297Z,0.00
2018-06-27T02:37:50.345Z,0.00
2018-06-27T02:38:50.283Z,0.00
2018-06-27T02:39:50.276Z,0.00
2018-06-27T02:40:50.286Z,0.00
2018-06-27T02:41:50.267Z,0.00
2018-06-27T02:42:50.249Z,0.00
2018-06-27T02:43:50.249Z,0.00
2018-06-27T02:44:50.235Z,0.00
2018-06-27T02:45:50.244Z,0.00
2018-06-27T02:46:50.227Z,0.00
2018-06-27T02:47:50.216Z,0.00
2018-06-27T02:48:50.213Z,0.00
2018-06-27T02:49:50.263Z,0.00
2018-06-27T02:50:50.186Z,0.00
2018-06-27T02:51:50.182Z,0.00
2018-06-27T02:52:50.172Z,0.00
2018-06-27T02:53:50.170Z,0.00
2018-06-27T02:54:50.184Z,0.00
2018-06-27T02:55:50.157Z,0.00
2018-06-27T02:56:50.144Z,0.00
2018-06-27T02:57:50.134Z,0.00
2018-06-27T02:58:50.127Z,0.00
2018-06-27T02:59:50.143Z,0.00
2018-06-27T03:00:50.109Z,0.00
2018-06-27T03:01:50.106Z,0.00
2018-06-27T03:02:50.095Z,0.00
2018-06-27T03:03:50.087Z,0.00
2018-06-27T03:04:50.078Z,0.00
2018-06-27T03:05:50.073Z,0.00
2018-06-27T03:06:50.061Z,0.00
2018-06-27T03:07:50.053Z,0.00
2018-06-27T03:08:50.053Z,0.00
2018-06-27T03:09:50.039Z,0.00
2018-06-27T03:10:50.033Z,0.00
2018-06-27T03:11:50.025Z,0.00
2018-06-27T03:12:50.014Z,0.00
2018-06-27T03:13:50.007Z,0.00
2018-06-27T03:14:50.031Z,0.00
2018-06-27T03:15:49.997Z,0.00
2018-06-27T03:16:49.989Z,0.00
2018-06-27T03:17:49.974Z,0.00
2018-06-27T03:18:49.968Z,0.00
2018-06-27T03:19:49.961Z,0.00
2018-06-27T03:20:49.953Z,0.00
2018-06-27T03:21:49.949Z,0.00
2018-06-27T03:22:49.937Z,0.00
2018-06-27T03:23:49.929Z,0.00
2018-06-27T03:24:49.922Z,0.00
2018-06-27T03:25:49.913Z,0.00
2018-06-27T03:26:49.909Z,0.00
2018-06-27T03:27:49.907Z,0.00
2018-06-27T03:28:49.891Z,0.00
2018-06-27T03:29:49.889Z,0.00
2018-06-27T03:30:49.875Z,0.00
2018-06-27T03:31:49.866Z,0.00
2018-06-27T03:32:49.856Z,0.00
2018-06-27T03:33:49.956Z,0.00
2018-06-27T03:34:49.843Z,0.00
2018-06-27T03:35:49.839Z,0.00
2018-06-27T03:36:49.831Z,0.00
2018-06-27T03:37:49.820Z,0.00
2018-06-27T03:38:49.816Z,0.00
2018-06-27T03:39:49.804Z,0.00
2018-06-27T03:40:49.795Z,0.00
2018-06-27T03:41:49.797Z,0.00
2018-06-27T03:42:49.779Z,0.00
2018-06-27T03:43:49.772Z,0.00
2018-06-27T03:44:49.767Z,0.00
2018-06-27T03:45:49.757Z,0.00
2018-06-27T03:46:49.742Z,0.00
2018-06-27T03:47:49.735Z,0.00
2018-06-27T03:48:49.733Z,0.00
2018-06-27T03:49:49.730Z,0.00
2018-06-27T03:50:49.720Z,0.00
2018-06-27T03:51:49.705Z,0.00
2018-06-27T03:52:49.704Z,0.00
2018-06-27T03:53:49.689Z,0.00
2018-06-27T03:54:49.679Z,0.00
2018-06-27T03:55:49.674Z,0.00
2018-06-27T03:56:49.667Z,0.00
2018-06-27T03:57:49.662Z,0.00
2018-06-27T03:58:49.652Z,0.00
2018-06-27T03:59:49.644Z,0.00
2018-06-27T04:00:49.633Z,0.00
2018-06-27T04:01:49.630Z,0.00
2018-06-27T04:02:49.621Z,0.00
2018-06-27T04:03:49.614Z,0.00
2018-06-27T04:04:50.438Z,0.00
2018-06-27T04:05:49.594Z,0.00
2018-06-27T04:06:49.587Z,0.00
2018-06-27T04:07:49.585Z,0.00
2018-06-27T04:08:49.571Z,0.00
2018-06-27T04:09:49.570Z,0.00
2018-06-27T04:10:49.555Z,0.00
2018-06-27T04:11:49.552Z,0.00
2018-06-27T04:12:49.610Z,0.00
2018-06-27T04:13:49.535Z,0.00
2018-06-27T04:14:49.531Z,0.00
2018-06-27T04:15:49.514Z,0.00
2018-06-27T04:16:49.515Z,0.00
2018-06-27T04:17:49.508Z,0.00
2018-06-27T04:18:49.491Z,0.00
2018-06-27T04:19:49.485Z,0.00
2018-06-27T04:20:49.478Z,0.00
2018-06-27T04:21:49.467Z,0.00
2018-06-27T04:22:49.463Z,0.00
2018-06-27T04:23:49.451Z,0.00
2018-06-27T04:24:49.443Z,0.00
2018-06-27T04:25:49.444Z,0.00
2018-06-27T04:26:49.442Z,0.00
2018-06-27T04:27:49.421Z,0.00
2018-06-27T04:28:49.410Z,0.00
2018-06-27T04:29:49.412Z,0.00
2018-06-27T04:30:49.393Z,0.00
2018-06-27T04:31:49.395Z,0.00
2018-06-27T04:32:49.386Z,0.00
2018-06-27T04:33:49.376Z,0.00
2018-06-27T04:34:49.362Z,0.00
2018-06-27T04:35:49.413Z,0.00
2018-06-27T04:36:49.357Z,0.00
2018-06-27T04:37:49.346Z,0.00
2018-06-27T04:38:49.336Z,0.00
2018-06-27T04:39:49.329Z,0.00
2018-06-27T04:40:49.322Z,0.00
2018-06-27T04:41:49.315Z,0.00
2018-06-27T04:42:49.303Z,0.00
2018-06-27T04:43:49.303Z,0.00
2018-06-27T04:44:49.286Z,0.00
2018-06-27T04:45:49.280Z,0.00
2018-06-27T04:46:49.273Z,0.00
2018-06-27T04:47:49.269Z,0.00
2018-06-27T04:48:49.260Z,0.00
2018-06-27T04:49:49.248Z,0.00
2018-06-27T04:50:49.244Z,0.00
2018-06-27T04:51:49.237Z,0.00
2018-06-27T04:52:49.230Z,0.00
2018-06-27T04:53:49.229Z,0.00
2018-06-27T04:54:49.228Z,0.00
2018-06-27T04:55:49.209Z,0.00
2018-06-27T04:56:49.197Z,0.00
2018-06-27T04:57:49.197Z,0.00
2018-06-27T04:58:49.187Z,0.00
2018-06-27T04:59:49.177Z,0.00
2018-06-27T05:00:49.171Z,0.00
2018-06-27T05:01:49.257Z,0.00
2018-06-27T05:02:49.154Z,0.00
2018-06-27T05:03:49.145Z,0.00
2018-06-27T05:04:49.138Z,0.00
2018-06-27T05:05:49.134Z,0.00
2018-06-27T05:06:49.123Z,0.00
2018-06-27T05:07:49.119Z,0.00
2018-06-27T05:08:49.112Z,0.00
2018-06-27T05:09:49.102Z,0.00
2018-06-27T05:10:49.092Z,0.00
2018-06-27T05:11:49.085Z,0.00
2018-06-27T05:12:49.079Z,0.00
2018-06-27T05:13:49.073Z,0.00
2018-06-27T05:14:49.065Z,0.00
2018-06-27T05:15:49.065Z,0.00
2018-06-27T05:16:49.054Z,0.00
2018-06-27T05:17:49.043Z,0.00
2018-06-27T05:18:49.035Z,0.00
2018-06-27T05:19:49.028Z,0.00
2018-06-27T05:20:49.020Z,0.00
2018-06-27T05:21:49.079Z,0.00
2018-06-27T05:22:49.023Z,0.00
2018-06-27T05:23:49.001Z,0.00
2018-06-27T05:24:48.997Z,0.00
2018-06-27T05:25:48.991Z,0.00
2018-06-27T05:26:48.979Z,0.00
2018-06-27T05:27:48.973Z,0.00
2018-06-27T05:28:48.971Z,0.00
2018-06-27T05:29:48.960Z,0.00
2018-06-27T05:30:49.465Z,0.00
2018-06-27T05:31:48.944Z,0.00
2018-06-27T05:32:48.936Z,0.00
2018-06-27T05:33:48.965Z,0.00
2018-06-27T05:34:48.924Z,0.00
2018-06-27T05:35:48.923Z,0.00
2018-06-27T05:36:48.914Z,0.00
2018-06-27T05:37:48.910Z,0.00
2018-06-27T05:38:48.897Z,0.00
2018-06-27T05:39:48.899Z,0.00
2018-06-27T05:40:48.885Z,0.00
2018-06-27T05:41:48.887Z,0.00
2018-06-27T05:42:48.877Z,0.00
2018-06-27T05:43:48.870Z,0.00
2018-06-27T05:44:48.870Z,0.00
2018-06-27T05:45:48.865Z,0.00
2018-06-27T05:46:48.859Z,0.00
2018-06-27T05:47:48.850Z,0.00
2018-06-27T05:48:48.841Z,0.00
2018-06-27T05:49:48.837Z,0.00
2018-06-27T05:50:48.836Z,0.00
2018-06-27T05:51:48.830Z,0.00
2018-06-27T05:52:48.821Z,0.00
2018-06-27T05:53:48.814Z,0.00
2018-06-27T05:54:48.810Z,0.00
2018-06-27T05:55:48.806Z,0.00
2018-06-27T05:56:48.807Z,0.00
2018-06-27T05:57:48.801Z,0.00
2018-06-27T05:58:48.798Z,3.64
2018-06-27T05:59:48.791Z,8.53
2018-06-27T06:00:48.787Z,7.38
2018-06-27T06:01:48.783Z,3.25
2018-06-27T06:02:48.783Z,12.07
2018-06-27T06:03:48.783Z,12.36
2018-06-27T06:04:48.776Z,7.95
2018-06-27T06:05:48.773Z,11.60
2018-06-27T06:06:48.765Z,11.69
2018-06-27T06:07:48.766Z,13.52
2018-06-27T06:08:48.760Z,18.31
2018-06-27T06:09:48.761Z,15.63
2018-06-27T06:10:48.757Z,22.53
2018-06-27T06:11:48.759Z,28.96
2018-06-27T06:12:48.754Z,28.49
2018-06-27T06:13:48.746Z,26.27
2018-06-27T06:14:48.743Z,23.97
2018-06-27T06:15:48.742Z,20.14
2018-06-27T06:16:48.741Z,29.24
2018-06-27T06:17:48.743Z,27.52
2018-06-27T06:18:48.736Z,23.01
2018-06-27T06:19:48.776Z,30.87
2018-06-27T06:20:48.730Z,28.19
2018-06-27T06:21:48.728Z,29.05
2018-06-27T06:22:48.733Z,27.52
2018-06-27T06:23:48.726Z,27.44
2018-06-27T06:24:48.725Z,29.93
2018-06-27T06:25:48.735Z,28.30
2018-06-27T06:26:48.716Z,33.39
2018-06-27T06:27:48.713Z,27.34
2018-06-27T06:28:48.715Z,29.08
2018-06-27T06:29:48.715Z,31.29
2018-06-27T06:30:48.712Z,45.59
2018-06-27T06:31:48.711Z,48.85
2018-06-27T06:32:48.711Z,48.47
2018-06-27T06:33:48.705Z,45.98
2018-06-27T06:34:48.703Z,43.38
2018-06-27T06:35:48.706Z,43.19
2018-06-27T06:36:48.956Z,43.48
2018-06-27T06:37:49.159Z,44.24
2018-06-27T06:38:49.038Z,36.95
2018-06-27T06:39:48.899Z,46.00
2018-06-27T06:40:49.169Z,30.15
2018-06-27T06:41:48.700Z,42.35
2018-06-27T06:42:48.704Z,48.21
2018-06-27T06:43:48.724Z,48.59
2018-06-27T06:44:48.694Z,47.05
2018-06-27T06:45:48.700Z,51.76
2018-06-27T06:46:48.745Z,49.55
2018-06-27T06:47:48.710Z,44.65
2018-06-27T06:48:48.689Z,49.55
2018-06-27T06:49:48.687Z,55.91
2018-06-27T06:50:48.708Z,56.40
2018-06-27T06:51:48.693Z,56.98
2018-06-27T06:52:48.694Z,59.76
2018-06-27T06:53:48.695Z,52.43
2018-06-27T06:54:48.690Z,53.49
2018-06-27T06:55:48.685Z,47.82
2018-06-27T06:56:48.687Z,39.37
2018-06-27T06:57:48.688Z,47.25
2018-06-27T06:58:48.742Z,58.89
2018-06-27T06:59:48.686Z,54.19
2018-06-27T07:00:48.686Z,57.17
2018-06-27T07:01:48.693Z,46.53
2018-06-27T07:02:48.687Z,61.81
2018-06-27T07:03:48.693Z,66.23
2018-06-27T07:04:48.719Z,59.22
2018-06-27T07:05:48.692Z,55.08
2018-06-27T07:06:48.696Z,54.60
2018-06-27T07:07:48.688Z,55.68
2018-06-27T07:08:48.696Z,52.70
2018-06-27T07:09:48.691Z,48.40
2018-06-27T07:10:48.690Z,75.05
2018-06-27T07:11:48.693Z,74.41
2018-06-27T07:12:48.694Z,78.94
2018-06-27T07:13:48.696Z,70.56
2018-06-27T07:14:48.695Z,61.13
2018-06-27T07:15:48.697Z,80.29
2018-06-27T07:16:48.696Z,78.27
2018-06-27T07:17:48.726Z,81.48
2018-06-27T07:18:48.703Z,81.29
2018-06-27T07:19:48.704Z,88.23
2018-06-27T07:20:48.705Z,84.81
2018-06-27T07:21:48.706Z,82.54
2018-06-27T07:22:48.708Z,85.39
2018-06-27T07:23:48.710Z,85.00
2018-06-27T07:24:48.711Z,83.08
2018-06-27T07:25:48.711Z,83.66
2018-06-27T07:26:48.714Z,76.53
2018-06-27T07:27:48.716Z,79.13
2018-06-27T07:28:48.777Z,80.68
2018-06-27T07:29:48.723Z,80.58
2018-06-27T07:30:48.721Z,79.52
2018-06-27T07:31:48.727Z,81.93
2018-06-27T07:32:48.730Z,80.43
2018-06-27T07:33:48.732Z,86.49
2018-06-27T07:34:48.735Z,85.82
2018-06-27T07:35:48.735Z,82.16
2018-06-27T07:36:48.736Z,87.65
2018-06-27T07:37:48.739Z,85.96
2018-06-27T07:38:48.744Z,89.91
2018-06-27T07:39:48.749Z,86.54
2018-06-27T07:40:48.754Z,89.72
2018-06-27T07:41:48.757Z,88.65
2018-06-27T07:42:48.758Z,89.29
2018-06-27T07:43:48.762Z,84.86
2018-06-27T07:44:48.768Z,78.65
2018-06-27T07:45:48.766Z,72.97
2018-06-27T07:46:48.770Z,77.50
2018-06-27T07:47:48.776Z,81.01
2018-06-27T07:48:48.780Z,82.06
2018-06-27T07:49:48.863Z,72.08
2018-06-27T07:50:48.783Z,87.21
2018-06-27T07:51:48.785Z,87.06
2018-06-27T07:52:48.797Z,92.46
2018-06-27T07:53:48.797Z,90.88
2018-06-27T07:54:48.799Z,89.53
2018-06-27T07:55:48.803Z,89.04
2018-06-27T07:56:48.818Z,89.18
2018-06-27T07:57:48.806Z,92.27
2018-06-27T07:58:48.810Z,91.50
2018-06-27T07:59:48.815Z,90.63
2018-06-27T08:00:48.818Z,88.08
2018-06-27T08:01:48.828Z,92.65
2018-06-27T08:02:48.830Z,91.36
2018-06-27T08:03:48.836Z,90.78
2018-06-27T08:04:48.839Z,79.21
2018-06-27T08:05:48.906Z,87.06
2018-06-27T08:06:48.849Z,81.66
2018-06-27T08:07:48.860Z,93.08
2018-06-27T08:08:48.855Z,94.92
2018-06-27T08:09:48.859Z,91.11
2018-06-27T08:10:48.858Z,93.80
2018-06-27T08:11:48.866Z,93.66
2018-06-27T08:12:48.869Z,97.52
2018-06-27T08:13:48.873Z,99.84
2018-06-27T08:14:48.880Z,95.35
2018-06-27T08:15:48.886Z,95.40
2018-06-27T08:16:48.895Z,99.99
2018-06-27T08:17:48.983Z,95.59
2018-06-27T08:18:48.894Z,99.99
2018-06-27T08:19:48.899Z,99.84
2018-06-27T08:20:48.904Z,99.88
2018-06-27T08:21:48.908Z,97.19
2018-06-27T08:22:48.916Z,93.56
2018-06-27T08:23:48.921Z,98.39
2018-06-27T08:24:48.926Z,99.99
2018-06-27T08:25:48.926Z,97.67
2018-06-27T08:26:48.955Z,99.41
2018-06-27T08:27:48.937Z,99.99
2018-06-27T08:28:48.944Z,99.31
2018-06-27T08:29:48.952Z,99.99
2018-06-27T08:30:48.967Z,99.99
2018-06-27T08:31:48.958Z,99.99
2018-06-27T08:32:48.958Z,99.99
2018-06-27T08:33:48.967Z,99.46
2018-06-27T08:34:48.972Z,99.99
2018-06-27T08:35:48.977Z,99.99
2018-06-27T08:36:48.981Z,99.99
2018-06-27T08:37:48.989Z,99.55
2018-06-27T08:38:48.989Z,99.99
2018-06-27T08:39:48.995Z,99.79
2018-06-27T08:40:48.999Z,99.65
2018-06-27T08:41:49.006Z,98.49
2018-06-27T08:42:49.015Z,99.99
2018-06-27T08:43:49.070Z,99.99
2018-06-27T08:44:49.021Z,99.99
2018-06-27T08:45:49.036Z,99.99
2018-06-27T08:46:49.032Z,99.55
2018-06-27T08:47:49.038Z,97.71
2018-06-27T08:48:49.065Z,97.52
2018-06-27T08:49:49.160Z,96.55
2018-06-27T08:50:49.061Z,97.67
2018-06-27T08:51:49.064Z,99.02
2018-06-27T08:52:49.072Z,99.99
2018-06-27T08:53:49.077Z,94.37
2018-06-27T08:54:49.084Z,98.35
2018-06-27T08:55:49.114Z,99.31
2018-06-27T08:56:49.104Z,99.36
2018-06-27T08:57:49.116Z,96.36
2018-06-27T08:58:49.167Z,94.27
2018-06-27T08:59:49.116Z,94.66
2018-06-27T09:00:49.123Z,90.59
2018-06-27T09:01:49.130Z,90.55
2018-06-27T09:02:49.138Z,92.87
2018-06-27T09:03:49.146Z,98.49
2018-06-27T09:04:49.151Z,96.65
2018-06-27T09:05:49.159Z,95.20
2018-06-27T09:06:49.167Z,96.75
2018-06-27T09:07:49.192Z,94.71
2018-06-27T09:08:49.181Z,94.62
2018-06-27T09:09:49.192Z,96.84
2018-06-27T09:10:49.200Z,95.97
2018-06-27T09:11:49.204Z,95.20
2018-06-27T09:12:49.212Z,93.35
2018-06-27T09:13:49.218Z,94.04
2018-06-27T09:14:49.221Z,95.58
2018-06-27T09:15:49.230Z,95.87
2018-06-27T09:16:49.235Z,95.39
2018-06-27T09:17:49.249Z,95.00
2018-06-27T09:18:49.256Z,94.81
2018-06-27T09:19:49.265Z,91.13
2018-06-27T09:20:49.265Z,92.39
2018-06-27T09:21:49.272Z,95.05
2018-06-27T09:22:49.281Z,92.72
2018-06-27T09:23:49.292Z,95.10
2018-06-27T09:24:49.300Z,92.86
2018-06-27T09:25:49.308Z,86.61
2018-06-27T09:26:49.313Z,87.87
2018-06-27T09:27:49.323Z,89.23
2018-06-27T09:28:49.326Z,88.06
2018-06-27T09:29:49.333Z,88.41
2018-06-27T09:30:49.348Z,92.52
2018-06-27T09:31:49.355Z,83.84
2018-06-27T09:32:49.361Z,85.44
2018-06-27T09:33:49.367Z,84.86
2018-06-27T09:34:49.370Z,88.55
2018-06-27T09:35:49.390Z,88.49
2018-06-27T09:36:49.386Z,88.59
2018-06-27T09:37:49.395Z,81.93
2018-06-27T09:38:49.408Z,81.31
2018-06-27T09:39:49.416Z,83.12
2018-06-27T09:40:49.424Z,87.62
2018-06-27T09:41:49.473Z,89.85
2018-06-27T09:42:49.436Z,88.44
2018-06-27T09:43:49.443Z,74.60
2018-06-27T09:44:49.456Z,75.04
2018-06-27T09:45:49.463Z,79.57
2018-06-27T09:46:49.471Z,80.11
2018-06-27T09:47:49.530Z,82.05
2018-06-27T09:48:49.484Z,83.70
2018-06-27T09:49:49.496Z,84.92
2018-06-27T09:50:49.506Z,91.89
2018-06-27T09:51:49.513Z,86.76
2018-06-27T09:52:49.517Z,87.15
2018-06-27T09:53:49.526Z,87.19
2018-06-27T09:54:49.552Z,87.43
2018-06-27T09:55:49.540Z,79.61
2018-06-27T09:56:49.600Z,76.40
2018-06-27T09:57:49.557Z,74.27
2018-06-27T09:58:49.570Z,74.75
2018-06-27T09:59:49.575Z,75.92
2018-06-27T10:00:50.147Z,77.95
2018-06-27T10:01:49.592Z,81.35
2018-06-27T10:02:49.595Z,75.95
2018-06-27T10:03:49.606Z,75.34
2018-06-27T10:04:49.618Z,81.68
2018-06-27T10:05:49.626Z,77.02
2018-06-27T10:06:49.629Z,76.05
2018-06-27T10:07:49.689Z,74.07
2018-06-27T10:08:49.658Z,78.59
2018-06-27T10:09:49.652Z,78.89
2018-06-27T10:10:49.662Z,84.63
2018-06-27T10:11:49.676Z,89.09
2018-06-27T10:12:49.684Z,93.30
2018-06-27T10:13:49.694Z,87.23
2018-06-27T10:14:49.693Z,88.88
2018-06-27T10:15:49.701Z,81.98
2018-06-27T10:16:49.725Z,71.97
2018-06-27T10:17:49.717Z,69.93
2018-06-27T10:18:49.726Z,74.27
2018-06-27T10:19:49.737Z,75.62
2018-06-27T10:20:49.738Z,77.57
2018-06-27T10:21:49.768Z,71.26
2018-06-27T10:22:49.755Z,71.45
2018-06-27T10:23:49.765Z,80.52
2018-06-27T10:24:49.774Z,75.60
2018-06-27T10:25:49.800Z,69.03
2018-06-27T10:26:49.815Z,63.78
2018-06-27T10:27:49.795Z,64.59
2018-06-27T10:28:49.808Z,63.71
2018-06-27T10:29:49.821Z,63.03
2018-06-27T10:30:49.823Z,59.75
2018-06-27T10:31:49.834Z,58.17
2018-06-27T10:32:49.837Z,60.47
2018-06-27T10:33:49.849Z,61.67
2018-06-27T10:34:49.926Z,58.72
2018-06-27T10:35:50.028Z,61.87
2018-06-27T10:36:49.875Z,59.63
2018-06-27T10:37:49.911Z,58.85
2018-06-27T10:38:49.892Z,58.53
2018-06-27T10:39:49.917Z,61.93
2018-06-27T10:40:49.913Z,63.62
2018-06-27T10:41:49.921Z,59.72
2018-06-27T10:42:49.925Z,60.99
2018-06-27T10:43:49.938Z,59.23
2018-06-27T10:44:49.945Z,60.53
2018-06-27T10:45:49.956Z,57.71
2018-06-27T10:46:49.967Z,59.88
2018-06-27T10:47:49.980Z,56.89
2018-06-27T10:48:49.991Z,55.13
2018-06-27T10:49:49.996Z,52.97
2018-06-27T10:50:50.001Z,53.75
2018-06-27T10:51:50.009Z,55.11
2018-06-27T10:52:50.019Z,53.16
2018-06-27T10:53:50.036Z,52.75
2018-06-27T10:54:50.048Z,53.30
2018-06-27T10:55:50.048Z,54.54
2018-06-27T10:56:50.056Z,56.29
2018-06-27T10:57:50.065Z,55.93
2018-06-27T10:58:50.072Z,55.03
2018-06-27T10:59:50.087Z,56.59
2018-06-27T11:00:50.090Z,58.65
2018-06-27T11:01:50.101Z,56.77
2018-06-27T11:02:50.109Z,60.70
2018-06-27T11:03:50.116Z,55.96
2018-06-27T11:04:50.122Z,54.60
2018-06-27T11:05:50.144Z,52.45
2018-06-27T11:06:50.141Z,53.89
2018-06-27T11:07:50.155Z,54.10
2018-06-27T11:08:50.161Z,55.63
2018-06-27T11:09:50.174Z,57.67
2018-06-27T11:10:50.182Z,58.44
2018-06-27T11:11:50.188Z,58.67
2018-06-27T11:12:50.195Z,58.89
2018-06-27T11:13:50.219Z,57.65
2018-06-27T11:14:50.213Z,55.25
2018-06-27T11:15:50.220Z,52.36
2018-06-27T11:16:50.229Z,51.19
2018-06-27T11:17:50.239Z,51.31
2018-06-27T11:18:50.244Z,50.43
2018-06-27T11:19:50.257Z,48.46
2018-06-27T11:20:50.261Z,49.32
2018-06-27T11:21:50.299Z,49.29
2018-06-27T11:22:50.283Z,52.19
2018-06-27T11:23:50.293Z,52.37
2018-06-27T11:24:50.300Z,51.21
2018-06-27T11:25:50.304Z,52.01
2018-06-27T11:26:50.321Z,49.95
2018-06-27T11:27:50.325Z,50.92
2018-06-27T11:28:50.348Z,50.43
2018-06-27T11:29:50.346Z,49.95
2018-06-27T11:30:50.354Z,50.04
2018-06-27T11:31:50.368Z,50.12
2018-06-27T11:32:50.388Z,49.54
2018-06-27T11:33:50.369Z,50.51
2018-06-27T11:34:50.381Z,50.02
2018-06-27T11:35:50.388Z,50.89
2018-06-27T11:36:50.398Z,50.89
2018-06-27T11:37:50.407Z,49.46
2018-06-27T11:38:50.487Z,50.04
2018-06-27T11:39:50.420Z,49.37
2018-06-27T11:40:50.425Z,50.04
2018-06-27T11:41:50.431Z,49.19
2018-06-27T11:42:50.438Z,49.29
2018-06-27T11:43:50.451Z,48.30
2018-06-27T11:44:50.504Z,49.27
2018-06-27T11:45:50.461Z,49.07
2018-06-27T11:46:50.472Z,48.95
2018-06-27T11:47:50.485Z,49.24
2018-06-27T11:48:50.490Z,50.02
2018-06-27T11:49:50.499Z,51.26
2018-06-27T11:50:50.501Z,50.02
2018-06-27T11:51:50.510Z,50.29
2018-06-27T11:52:50.513Z,50.77
2018-06-27T11:53:50.520Z,49.22
2018-06-27T11:54:50.532Z,50.38
2018-06-27T11:55:50.557Z,49.87
2018-06-27T11:56:50.547Z,52.33
2018-06-27T11:57:50.551Z,49.34
2018-06-27T11:58:50.558Z,49.17
2018-06-27T11:59:50.572Z,49.27
2018-06-27T12:00:50.573Z,48.18
2018-06-27T12:01:50.576Z,48.47
2018-06-27T12:02:50.596Z,48.25
2018-06-27T12:03:50.592Z,49.12
2018-06-27T12:04:51.248Z,49.80
2018-06-27T12:05:50.607Z,49.22
2018-06-27T12:06:50.614Z,49.71
2018-06-27T12:07:50.624Z,49.29
2018-06-27T12:08:50.627Z,49.17
2018-06-27T12:09:50.651Z,49.85
2018-06-27T12:10:50.642Z,49.34
2018-06-27T12:11:50.648Z,50.99
2018-06-27T12:12:50.657Z,52.15
2018-06-27T12:13:50.659Z,52.42
2018-06-27T12:14:50.663Z,52.61
2018-06-27T12:15:50.670Z,52.34
2018-06-27T12:16:50.717Z,53.41
2018-06-27T12:17:50.686Z,53.24
2018-06-27T12:18:50.697Z,53.24
2018-06-27T12:19:50.697Z,52.20
2018-06-27T12:20:50.704Z,51.23
2018-06-27T12:21:50.707Z,51.23
2018-06-27T12:22:50.715Z,50.16
2018-06-27T12:23:50.745Z,50.07
2018-06-27T12:24:50.729Z,50.94
2018-06-27T12:25:50.739Z,51.55
2018-06-27T12:26:50.740Z,50.77
2018-06-27T12:27:50.741Z,50.36
2018-06-27T12:28:50.749Z,51.04
2018-06-27T12:29:50.758Z,50.94
2018-06-27T12:30:50.769Z,49.97
2018-06-27T12:31:50.781Z,49.90
2018-06-27T12:32:50.784Z,49.51
2018-06-27T12:33:50.785Z,48.35
2018-06-27T12:34:51.774Z,48.05
2018-06-27T12:35:50.793Z,47.86
2018-06-27T12:36:50.808Z,48.54
2018-06-27T12:37:50.811Z,48.42
2018-06-27T12:38:50.811Z,48.88
2018-06-27T12:39:50.816Z,50.04
2018-06-27T12:40:50.824Z,50.60
2018-06-27T12:41:50.827Z,51.31
2018-06-27T12:42:50.834Z,52.28
2018-06-27T12:43:50.835Z,50.84
2018-06-27T12:44:50.886Z,48.42
2018-06-27T12:45:50.855Z,48.10
2018-06-27T12:46:50.855Z,49.17
2018-06-27T12:47:50.860Z,49.17
2018-06-27T12:48:50.867Z,49.17
2018-06-27T12:49:50.889Z,48.30
2018-06-27T12:50:50.879Z,49.10
2018-06-27T12:51:50.888Z,49.10
2018-06-27T12:52:50.893Z,48.15
2018-06-27T12:53:50.897Z,47.93
2018-06-27T12:54:50.903Z,47.93
2018-06-27T12:55:50.906Z,47.35
2018-06-27T12:56:50.910Z,48.22
2018-06-27T12:57:50.919Z,48.32
2018-06-27T12:58:50.926Z,48.13
2018-06-27T12:59:50.969Z,47.16
2018-06-27T13:00:50.937Z,47.83
2018-06-27T13:01:50.942Z,47.52
2018-06-27T13:02:50.944Z,47.93
2018-06-27T13:03:50.954Z,48.42
2018-06-27T13:04:50.956Z,48.71